createdAt,value
2022-10-23T00:01:41.103Z,5.47
2022-10-23T00:04:13.791Z,5.15
2022-10-23T00:06:42.545Z,5.53
2022-10-23T00:09:12.717Z,5.05
2022-10-23T00:11:41.427Z,5.45
2022-10-23T00:14:09.316Z,5.00
2022-10-23T00:16:37.551Z,5.90
2022-10-23T00:19:06.186Z,4.72
2022-10-23T00:21:34.180Z,5.90
2022-10-23T00:24:03.636Z,5.10
2022-10-23T00:26:31.459Z,4.88
2022-10-23T00:28:59.376Z,5.20
2022-10-23T00:31:27.198Z,4.82
2022-10-23T00:33:55.003Z,4.80
2022-10-23T00:36:23.209Z,5.25
2022-10-23T00:38:50.329Z,5.50
2022-10-23T00:41:29.234Z,6.03
2022-10-23T00:44:29.161Z,5.50
2022-10-23T00:46:58.675Z,5.68
2022-10-23T00:49:26.082Z,6.13
2022-10-23T00:52:09.044Z,5.45
2022-10-23T00:54:43.679Z,5.22
2022-10-23T00:57:14.737Z,5.72
2022-10-23T00:59:42.771Z,5.57
2022-10-23T01:02:10.714Z,5.63
2022-10-23T01:04:39.626Z,5.65
2022-10-23T01:07:44.781Z,6.32
2022-10-23T01:10:35.320Z,6.07
2022-10-23T01:13:35.833Z,5.90
2022-10-23T01:16:18.315Z,6.22
2022-10-23T01:19:02.035Z,6.75
2022-10-23T01:21:43.537Z,5.50
2022-10-23T01:24:22.857Z,6.28
2022-10-23T01:27:13.895Z,6.60
2022-10-23T01:29:53.753Z,6.65
2022-10-23T01:32:56.475Z,6.60
2022-10-23T01:35:51.499Z,6.25
2022-10-23T01:38:51.667Z,5.97
2022-10-23T01:41:39.260Z,6.53
2022-10-23T01:44:24.005Z,6.28
2022-10-23T01:46:53.995Z,6.78
2022-10-23T01:49:23.813Z,5.47
2022-10-23T01:52:01.833Z,5.28
2022-10-23T01:54:35.932Z,5.53
2022-10-23T01:57:04.507Z,5.30
2022-10-23T01:59:36.923Z,6.07
2022-10-23T02:02:06.736Z,5.65
2022-10-23T02:04:42.634Z,5.05
2022-10-23T02:07:09.289Z,5.82
2022-10-23T02:09:36.839Z,6.28
2022-10-23T02:12:09.353Z,5.63
2022-10-23T02:14:57.599Z,5.88
2022-10-23T02:17:49.754Z,5.78
2022-10-23T02:23:10.165Z,6.03
2022-10-23T02:25:50.588Z,5.25
2022-10-23T02:28:22.567Z,5.90
2022-10-23T02:30:50.819Z,5.30
2022-10-23T02:33:19.664Z,5.00
2022-10-23T02:35:48.507Z,4.45
2022-10-23T02:38:43.622Z,4.78
2022-10-23T02:41:45.419Z,4.93
2022-10-23T02:44:39.738Z,5.28
2022-10-23T02:47:15.732Z,4.68
2022-10-23T02:50:12.094Z,5.82
2022-10-23T02:52:46.125Z,5.57
2022-10-23T02:56:06.507Z,5.53
2022-10-23T02:58:46.204Z,7.75
2022-10-23T03:01:24.637Z,6.78
2022-10-23T03:03:57.877Z,6.28
2022-10-23T03:06:25.165Z,7.05
2022-10-23T03:09:08.579Z,6.57
2022-10-23T03:11:36.564Z,6.93
2022-10-23T03:14:04.545Z,6.65
2022-10-23T03:16:32.295Z,6.50
2022-10-23T03:18:58.916Z,7.28
2022-10-23T03:21:26.920Z,5.95
2022-10-23T03:23:55.149Z,5.75
2022-10-23T03:26:21.954Z,7.00
2022-10-23T03:28:49.801Z,6.70
2022-10-23T03:31:17.976Z,6.50
2022-10-23T03:33:45.946Z,5.85
2022-10-23T03:36:13.567Z,5.55
2022-10-23T03:38:40.293Z,5.57
2022-10-23T03:41:06.885Z,5.70
2022-10-23T03:43:37.203Z,5.30
2022-10-23T03:46:12.571Z,5.55
2022-10-23T03:48:42.001Z,5.18
2022-10-23T03:51:10.093Z,4.80
2022-10-23T03:53:37.668Z,5.72
2022-10-23T03:56:05.907Z,6.07
2022-10-23T03:58:36.887Z,7.10
2022-10-23T04:01:05.779Z,5.87
2022-10-23T04:03:36.129Z,6.25
2022-10-23T04:06:05.619Z,5.18
2022-10-23T04:08:35.879Z,5.60
2022-10-23T04:11:02.617Z,5.45
2022-10-23T04:13:30.734Z,5.90
2022-10-23T04:15:58.493Z,5.45
2022-10-23T04:18:26.087Z,5.72
2022-10-23T04:20:54.312Z,5.60
2022-10-23T04:23:21.981Z,5.90
2022-10-23T04:25:49.969Z,6.30
2022-10-23T04:28:17.771Z,5.93
2022-10-23T04:30:45.807Z,6.35
2022-10-23T04:33:14.213Z,5.28
2022-10-23T04:35:41.941Z,5.70
2022-10-23T04:38:10.009Z,5.65
2022-10-23T04:40:38.267Z,5.95
2022-10-23T04:43:06.327Z,7.55
2022-10-23T04:45:34.397Z,7.63
2022-10-23T04:48:02.326Z,9.77
2022-10-23T04:50:29.929Z,10.95
2022-10-23T04:52:58.482Z,13.15
2022-10-23T04:55:26.707Z,11.85
2022-10-23T04:57:54.369Z,9.73
2022-10-23T05:00:22.390Z,9.57
2022-10-23T05:02:50.233Z,7.80
2022-10-23T05:05:18.444Z,7.28
2022-10-23T05:07:46.529Z,7.90
2022-10-23T05:10:13.517Z,7.20
2022-10-23T05:12:41.259Z,7.15
2022-10-23T05:15:09.629Z,7.20
2022-10-23T05:17:41.812Z,6.07
2022-10-23T05:20:16.021Z,5.45
2022-10-23T05:22:46.041Z,5.82
2022-10-23T05:25:13.718Z,5.55
2022-10-23T05:27:41.727Z,5.95
2022-10-23T05:30:10.287Z,6.20
2022-10-23T05:32:39.049Z,6.45
2022-10-23T05:35:11.472Z,7.38
2022-10-23T05:37:46.052Z,7.65
2022-10-23T05:40:16.917Z,7.10
2022-10-23T05:42:44.878Z,7.80
2022-10-23T05:45:12.848Z,8.23
2022-10-23T05:47:40.744Z,7.43
2022-10-23T05:50:09.959Z,6.75
2022-10-23T05:52:37.723Z,7.88
2022-10-23T05:55:04.923Z,7.28
2022-10-23T05:57:34.835Z,7.35
2022-10-23T06:00:04.875Z,7.30
2022-10-23T06:02:32.882Z,7.30
2022-10-23T06:05:02.366Z,8.13
2022-10-23T06:07:33.540Z,7.20
2022-10-23T06:10:05.856Z,7.38
2022-10-23T06:12:36.407Z,7.93
2022-10-23T06:15:07.716Z,7.70
2022-10-23T06:17:34.656Z,7.88
2022-10-23T06:20:02.630Z,8.02
2022-10-23T06:22:30.617Z,6.82
2022-10-23T06:25:00.418Z,8.55
2022-10-23T06:27:29.790Z,7.43
2022-10-23T06:29:57.863Z,7.20
2022-10-23T06:32:25.653Z,6.95
2022-10-23T06:34:54.336Z,7.13
2022-10-23T06:37:22.274Z,7.05
2022-10-23T06:39:51.011Z,7.45
2022-10-23T06:42:18.929Z,6.40
2022-10-23T06:44:49.112Z,7.18
2022-10-23T06:49:49.828Z,5.45
2022-10-23T06:52:41.637Z,5.68
2022-10-23T06:55:06.705Z,5.68
2022-10-23T06:57:34.663Z,5.65
2022-10-23T07:00:02.369Z,5.88
2022-10-23T07:02:32.435Z,6.10
2022-10-23T07:05:02.619Z,5.75
2022-10-23T07:07:38.182Z,5.88
2022-10-23T07:10:08.954Z,5.60
2022-10-23T07:12:35.906Z,5.50
2022-10-23T07:15:04.065Z,5.53
2022-10-23T07:17:31.982Z,5.78
2022-10-23T07:20:02.056Z,5.97
2022-10-23T07:22:32.480Z,5.97
2022-10-23T07:24:59.039Z,5.75
2022-10-23T07:27:25.700Z,5.03
2022-10-23T07:29:53.155Z,5.63
2022-10-23T07:32:19.743Z,6.05
2022-10-23T07:34:46.347Z,6.40
2022-10-23T07:37:12.950Z,6.50
2022-10-23T07:39:39.539Z,5.85
2022-10-23T07:42:06.186Z,5.72
2022-10-23T07:44:32.761Z,5.72
2022-10-23T07:46:59.321Z,6.15
2022-10-23T07:49:25.976Z,6.07
2022-10-23T07:51:59.794Z,5.70
2022-10-23T07:54:26.394Z,5.65
2022-10-23T07:56:52.971Z,5.72
2022-10-23T07:59:19.575Z,6.15
2022-10-23T08:01:49.513Z,6.20
2022-10-23T08:04:18.131Z,5.88
2022-10-23T08:06:44.968Z,5.90
2022-10-23T08:09:11.548Z,5.25
2022-10-23T08:11:38.259Z,4.80
2022-10-23T08:14:06.225Z,5.90
2022-10-23T08:16:34.888Z,4.60
2022-10-23T08:19:02.648Z,5.47
2022-10-23T08:21:29.467Z,4.78
2022-10-23T08:23:58.508Z,4.82
2022-10-23T08:26:26.368Z,5.72
2022-10-23T08:28:53.324Z,5.70
2022-10-23T08:31:21.263Z,5.45
2022-10-23T08:36:24.100Z,5.47
2022-10-23T08:38:54.829Z,6.28
2022-10-23T08:41:33.185Z,5.03
2022-10-23T08:44:20.094Z,5.40
2022-10-23T08:46:59.422Z,5.10
2022-10-23T08:49:33.914Z,5.93
2022-10-23T08:52:10.384Z,6.22
2022-10-23T08:55:05.798Z,6.43
2022-10-23T08:57:41.296Z,6.57
2022-10-23T09:00:18.790Z,7.22
2022-10-23T09:02:48.387Z,5.55
2022-10-23T09:05:16.932Z,5.88
2022-10-23T09:08:18.951Z,5.03
2022-10-23T09:11:00.586Z,5.00
2022-10-23T09:13:58.303Z,5.75
2022-10-23T09:16:56.074Z,5.20
2022-10-23T09:19:28.157Z,3.65
2022-10-23T09:21:56.457Z,3.05
2022-10-23T09:24:25.519Z,2.20
2022-10-23T09:26:53.939Z,2.58
2022-10-23T09:29:33.050Z,2.53
2022-10-23T09:32:06.199Z,2.08
2022-10-23T09:34:34.544Z,1.75
2022-10-23T09:37:21.653Z,1.60
2022-10-23T09:39:48.451Z,2.17
2022-10-23T09:42:24.363Z,3.40
2022-10-23T09:44:53.457Z,2.25
2022-10-23T09:47:22.746Z,2.33
2022-10-23T09:49:57.227Z,2.25
2022-10-23T09:52:26.089Z,2.45
2022-10-23T09:55:01.193Z,2.25
2022-10-23T09:57:44.016Z,2.17
2022-10-23T10:00:27.592Z,2.30
2022-10-23T10:03:01.340Z,3.45
2022-10-23T10:05:35.409Z,2.95
2022-10-23T10:08:20.313Z,3.35
2022-10-23T10:11:20.051Z,2.50
2022-10-23T10:14:04.642Z,2.55
2022-10-23T10:16:46.667Z,2.67
2022-10-23T10:19:44.949Z,2.50
2022-10-23T10:22:40.469Z,2.20
2022-10-23T10:25:22.883Z,2.22
2022-10-23T10:28:18.450Z,2.00
2022-10-23T10:31:11.137Z,2.13
2022-10-23T10:33:37.711Z,2.30
2022-10-23T10:36:30.872Z,1.92
2022-10-23T10:39:03.312Z,2.00
2022-10-23T10:50:51.428Z,1.80
2022-10-23T10:53:39.664Z,1.60
2022-10-23T10:56:12.749Z,1.75
2022-10-23T10:58:45.156Z,1.73
2022-10-23T11:01:26.955Z,1.80
2022-10-23T11:04:29.499Z,1.92
2022-10-23T11:06:58.625Z,2.10
2022-10-23T11:09:29.895Z,1.70
2022-10-23T11:11:56.447Z,2.47
2022-10-23T11:14:25.876Z,2.75
2022-10-23T11:17:09.762Z,2.20
2022-10-23T11:19:44.323Z,2.25
2022-10-23T11:22:46.663Z,2.35
2022-10-23T11:25:36.681Z,2.33
2022-10-23T11:28:41.635Z,2.70
2022-10-23T11:31:26.660Z,2.38
2022-10-23T11:34:01.494Z,2.33
2022-10-23T11:36:48.809Z,2.25
2022-10-23T11:39:30.092Z,2.20
2022-10-23T11:42:00.245Z,1.77
2022-10-23T11:44:28.709Z,2.30
2022-10-23T11:47:03.974Z,1.98
2022-10-23T11:49:30.571Z,1.98
2022-10-23T11:52:02.345Z,2.33
2022-10-23T11:54:29.124Z,2.42
2022-10-23T11:57:11.926Z,2.80
2022-10-23T11:59:47.513Z,2.47
2022-10-23T12:02:38.217Z,1.90
2022-10-23T12:05:08.947Z,2.50
2022-10-23T12:07:41.214Z,2.07
2022-10-23T12:10:23.759Z,2.85
2022-10-23T12:13:04.371Z,3.10
2022-10-23T12:15:34.854Z,3.00
2022-10-23T12:18:28.239Z,2.90
2022-10-23T12:20:59.124Z,2.70
2022-10-23T12:23:31.849Z,2.88
2022-10-23T12:26:04.603Z,2.50
2022-10-23T12:28:40.939Z,2.92
2022-10-23T12:31:28.078Z,2.78
2022-10-23T12:34:16.080Z,2.80
2022-10-23T12:37:21.559Z,2.85
2022-10-23T12:39:59.117Z,2.22
2022-10-23T12:42:29.557Z,2.38
2022-10-23T12:45:08.457Z,2.20
2022-10-23T12:47:35.620Z,2.10
2022-10-23T12:50:02.351Z,2.10
2022-10-23T12:52:28.986Z,2.20
2022-10-23T12:54:55.561Z,1.88
2022-10-23T12:57:30.375Z,2.17
2022-10-23T13:00:08.132Z,1.95
2022-10-23T13:02:35.179Z,2.15
2022-10-23T13:05:05.657Z,2.13
2022-10-23T13:07:37.353Z,2.03
2022-10-23T13:10:05.830Z,2.45
2022-10-23T13:12:38.774Z,2.65
2022-10-23T13:15:08.247Z,2.00
2022-10-23T13:17:35.109Z,1.95
2022-10-23T13:20:32.365Z,2.35
2022-10-23T13:23:10.055Z,1.83
2022-10-23T13:25:39.394Z,2.40
2022-10-23T13:28:21.885Z,2.05
2022-10-23T13:31:21.347Z,1.95
2022-10-23T13:34:16.283Z,2.45
2022-10-23T13:36:55.257Z,1.85
2022-10-23T13:39:26.863Z,2.28
2022-10-23T13:41:53.673Z,2.30
2022-10-23T13:44:23.225Z,2.65
2022-10-23T13:46:52.203Z,2.90
2022-10-23T13:49:19.854Z,2.85
2022-10-23T13:51:52.589Z,3.03
2022-10-23T13:56:56.275Z,2.90
2022-10-23T13:59:22.995Z,3.03
2022-10-23T14:01:50.877Z,3.00
2022-10-23T14:04:18.772Z,3.28
2022-10-23T14:06:45.485Z,3.45
2022-10-23T14:09:15.401Z,3.42
2022-10-23T14:11:42.285Z,3.75
2022-10-23T14:14:09.316Z,3.17
2022-10-23T14:16:36.392Z,3.45
2022-10-23T14:19:03.507Z,3.47
2022-10-23T14:21:30.130Z,3.33
2022-10-23T14:23:57.452Z,3.35
2022-10-23T14:26:27.636Z,3.10
2022-10-23T14:28:55.556Z,3.80
2022-10-23T14:31:22.737Z,3.20
2022-10-23T14:33:58.681Z,4.13
2022-10-23T14:36:30.897Z,4.20
2022-10-23T14:39:05.277Z,3.85
2022-10-23T14:41:32.002Z,4.00
2022-10-23T14:43:58.633Z,3.72
2022-10-23T14:46:25.838Z,3.67
2022-10-23T14:48:54.946Z,4.28
2022-10-23T14:51:28.325Z,3.58
2022-10-23T14:54:01.487Z,4.72
2022-10-23T14:56:31.245Z,4.55
2022-10-23T14:59:02.976Z,3.88
2022-10-23T15:01:35.645Z,4.80
2022-10-23T15:04:02.459Z,4.25
2022-10-23T15:06:29.379Z,5.25
2022-10-23T15:08:56.629Z,4.75
2022-10-23T15:11:24.587Z,4.25
2022-10-23T15:13:51.436Z,4.20
2022-10-23T15:16:18.305Z,4.43
2022-10-23T15:18:45.005Z,4.20
2022-10-23T15:21:11.599Z,4.38
2022-10-23T15:23:41.427Z,4.95
2022-10-23T15:26:12.465Z,5.25
2022-10-23T15:28:39.196Z,5.03
2022-10-23T15:31:06.647Z,4.32
2022-10-23T15:33:33.611Z,4.80
2022-10-23T15:36:00.335Z,5.20
2022-10-23T15:38:26.999Z,4.82
2022-10-23T15:41:00.897Z,5.07
2022-10-23T15:43:33.136Z,5.15
2022-10-23T15:45:59.723Z,6.00
2022-10-23T15:48:26.467Z,6.28
2022-10-23T15:50:53.140Z,7.18
2022-10-23T15:53:19.738Z,8.27
2022-10-23T15:55:46.893Z,7.20
2022-10-23T15:58:13.494Z,8.73
2022-10-23T16:00:40.389Z,9.20
2022-10-23T16:03:07.112Z,8.48
2022-10-23T16:05:33.716Z,9.70
2022-10-23T16:08:00.348Z,10.90
2022-10-23T16:10:27.091Z,12.15
2022-10-23T16:12:53.679Z,10.60
2022-10-23T16:15:20.358Z,11.57
2022-10-23T16:17:47.030Z,11.82
2022-10-23T16:20:13.633Z,13.73
2022-10-23T16:22:44.084Z,12.70
2022-10-23T16:25:11.644Z,14.40
2022-10-23T16:27:38.426Z,14.95
2022-10-23T16:30:09.018Z,15.25
2022-10-23T16:32:36.625Z,15.13
2022-10-23T16:35:13.002Z,15.10
2022-10-23T16:37:39.821Z,16.50
2022-10-23T16:40:07.033Z,16.55
2022-10-23T16:42:33.718Z,17.13
2022-10-23T16:45:00.526Z,16.98
2022-10-23T16:47:27.129Z,16.17
2022-10-23T16:49:53.718Z,15.10
2022-10-23T16:52:20.333Z,16.50
2022-10-23T16:54:47.023Z,16.17
2022-10-23T16:57:13.716Z,13.57
2022-10-23T16:59:40.358Z,12.88
2022-10-23T17:02:07.117Z,11.60
2022-10-23T17:04:40.079Z,11.57
2022-10-23T17:07:07.259Z,10.63
2022-10-23T17:09:35.802Z,11.13
2022-10-23T17:12:02.454Z,11.02
2022-10-23T17:14:29.203Z,10.90
2022-10-23T17:16:58.569Z,10.23
2022-10-23T17:19:44.723Z,9.98
2022-10-23T17:22:15.417Z,9.55
2022-10-23T17:24:45.175Z,9.68
2022-10-23T17:27:15.016Z,9.25
2022-10-23T17:29:42.380Z,8.55
2022-10-23T17:32:09.075Z,8.65
2022-10-23T17:34:37.405Z,9.15
2022-10-23T17:37:04.364Z,9.25
2022-10-23T17:39:31.017Z,8.57
2022-10-23T17:41:58.489Z,11.00
2022-10-23T17:44:25.344Z,11.65
2022-10-23T17:46:55.304Z,11.45
2022-10-23T17:49:23.290Z,13.18
2022-10-23T17:51:55.149Z,11.18
2022-10-23T17:56:48.409Z,12.30
2022-10-23T17:59:19.352Z,12.65
2022-10-23T18:01:48.133Z,11.57
2022-10-23T18:04:17.394Z,10.65
2022-10-23T18:06:47.047Z,11.15
2022-10-23T18:09:13.705Z,11.10
2022-10-23T18:11:46.944Z,10.80
2022-10-23T18:14:16.107Z,9.73
2022-10-23T18:16:42.830Z,10.20
2022-10-23T18:19:10.552Z,10.82
2022-10-23T18:21:38.091Z,10.55
2022-10-23T18:24:05.226Z,9.43
2022-10-23T18:26:35.175Z,11.05
2022-10-23T18:29:05.043Z,11.38
2022-10-23T18:31:31.788Z,11.50
2022-10-23T18:34:01.597Z,10.13
2022-10-23T18:36:31.137Z,10.35
2022-10-23T18:38:58.057Z,9.75
2022-10-23T18:41:25.683Z,12.52
2022-10-23T18:43:52.882Z,11.50
2022-10-23T18:46:20.560Z,11.73
2022-10-23T18:48:49.905Z,12.05
2022-10-23T18:51:21.105Z,13.63
2022-10-23T18:53:48.408Z,13.77
2022-10-23T18:56:21.818Z,13.20
2022-10-23T18:58:50.423Z,13.10
2022-10-23T19:01:18.074Z,12.90
2022-10-23T19:03:45.171Z,12.38
2022-10-23T19:06:12.098Z,12.65
2022-10-23T19:08:41.194Z,12.25
2022-10-23T19:11:09.471Z,13.48
2022-10-23T19:13:39.125Z,12.98
2022-10-23T19:16:14.978Z,12.35
2022-10-23T19:18:45.753Z,12.20
2022-10-23T19:21:13.210Z,12.75
2022-10-23T19:23:41.869Z,13.05
2022-10-23T19:26:12.016Z,12.63
2022-10-23T19:28:45.755Z,13.55
2022-10-23T19:31:13.006Z,16.00
2022-10-23T19:33:39.750Z,15.55
2022-10-23T19:36:11.122Z,14.32
2022-10-23T19:38:41.524Z,13.73
2022-10-23T19:41:08.666Z,12.57
2022-10-23T19:43:35.356Z,14.63
2022-10-23T19:46:06.301Z,13.43
2022-10-23T19:48:36.044Z,12.23
2022-10-23T19:51:02.614Z,12.80
2022-10-23T19:53:29.478Z,13.13
2022-10-23T19:56:07.439Z,12.52
2022-10-23T19:58:34.328Z,13.63
2022-10-23T20:01:20.235Z,12.80
2022-10-23T20:03:48.947Z,13.90
2022-10-23T20:06:28.553Z,12.63
2022-10-23T20:08:56.019Z,13.43
2022-10-23T20:11:29.035Z,13.20
2022-10-23T20:13:56.755Z,13.73
2022-10-23T20:16:29.289Z,13.77
2022-10-23T20:18:59.587Z,14.32
2022-10-23T20:21:26.287Z,13.38
2022-10-23T20:23:53.172Z,12.35
2022-10-23T20:26:22.061Z,12.75
2022-10-23T20:28:52.212Z,13.90
2022-10-23T20:31:20.335Z,12.23
2022-10-23T20:33:47.009Z,10.70
2022-10-23T20:36:27.429Z,10.73
2022-10-23T20:38:55.248Z,12.23
2022-10-23T20:41:26.643Z,12.02
2022-10-23T20:43:57.951Z,11.43
2022-10-23T20:46:29.819Z,11.03
2022-10-23T20:48:59.979Z,10.57
2022-10-23T20:51:30.251Z,9.93
2022-10-23T20:53:58.133Z,9.13
2022-10-23T20:56:32.256Z,10.30
2022-10-23T20:59:07.621Z,9.68
2022-10-23T21:01:36.292Z,10.23
2022-10-23T21:04:04.527Z,9.65
2022-10-23T21:06:51.918Z,10.05
2022-10-23T21:09:31.645Z,9.73
2022-10-23T21:11:59.930Z,9.18
2022-10-23T21:14:33.939Z,9.23
2022-10-23T21:17:04.258Z,8.63
2022-10-23T21:19:33.797Z,9.00
2022-10-23T21:22:02.345Z,8.55
2022-10-23T21:24:33.069Z,8.70
2022-10-23T21:27:01.063Z,8.13
2022-10-23T21:29:31.287Z,7.32
2022-10-23T21:32:04.178Z,7.82
2022-10-23T21:34:34.567Z,7.72
2022-10-23T21:37:13.052Z,8.27
2022-10-23T21:39:46.362Z,8.32
2022-10-23T21:42:16.249Z,8.02
2022-10-23T21:44:46.418Z,7.53
2022-10-23T21:47:13.309Z,7.75
2022-10-23T21:49:40.499Z,8.23
2022-10-23T21:52:07.709Z,7.22
2022-10-23T21:54:34.378Z,8.20
2022-10-23T21:57:03.217Z,7.53
2022-10-23T21:59:30.413Z,7.50
2022-10-23T22:01:59.954Z,8.43
2022-10-23T22:04:26.647Z,8.73
2022-10-23T22:06:53.655Z,7.78
2022-10-23T22:09:22.129Z,7.32
2022-10-23T22:11:53.325Z,8.15
2022-10-23T22:14:20.720Z,7.63
2022-10-23T22:16:47.928Z,7.82
2022-10-23T22:19:16.982Z,8.10
2022-10-23T22:21:43.653Z,8.27
2022-10-23T22:24:10.879Z,8.68
2022-10-23T22:26:40.415Z,7.90
2022-10-23T22:29:09.909Z,8.68
2022-10-23T22:31:38.091Z,8.95
2022-10-23T22:34:18.603Z,8.27
2022-10-23T22:36:55.797Z,7.53
2022-10-23T22:39:23.352Z,7.82
2022-10-23T22:41:50.452Z,7.63
2022-10-23T22:44:17.273Z,8.52
2022-10-23T22:46:44.532Z,8.40
2022-10-23T22:49:11.438Z,8.38
2022-10-23T22:51:39.752Z,8.70
2022-10-23T22:54:07.125Z,7.22
2022-10-23T22:56:34.590Z,8.68
2022-10-23T22:59:01.224Z,8.73
2022-10-23T23:01:30.116Z,7.88
2022-10-23T23:04:04.280Z,8.23
2022-10-23T23:06:46.935Z,7.43
2022-10-23T23:09:17.855Z,7.35
2022-10-23T23:11:51.431Z,7.57
2022-10-23T23:14:22.988Z,8.27
2022-10-23T23:16:52.157Z,8.70
2022-10-23T23:19:18.841Z,8.48
2022-10-23T23:21:45.467Z,7.75
2022-10-23T23:24:12.123Z,8.38
2022-10-23T23:26:38.948Z,8.05
2022-10-23T23:29:05.803Z,7.32
2022-10-23T23:31:32.589Z,8.65
2022-10-23T23:33:59.271Z,7.25
2022-10-23T23:36:28.109Z,7.47
2022-10-23T23:38:57.036Z,7.93
2022-10-23T23:41:24.589Z,7.82
2022-10-23T23:43:54.203Z,7.68
2022-10-23T23:46:22.026Z,8.00
2022-10-23T23:48:49.698Z,8.25
2022-10-23T23:51:22.781Z,7.90
2022-10-23T23:53:50.416Z,7.10
2022-10-23T23:56:18.410Z,7.85
2022-10-23T23:58:45.040Z,7.68
